Vance, Texas
Current Conditions -  °F | °C
As of 10:50 PM on Friday 19 Dec 2014 (Local Time) from KECU Reporting Station
Clear Clear  
Wind Chill: 41°   Ceiling: Unl
Heat Index: 45°   Visibility: 10mi
Dew Point: 43°   Wind: 7mph
Humidity: 93%   Direction: 30°NNE
Pressure: 30.18"   Gusts: NA
Location:  29.729°N, 100.162°W
Report Text: KECU 200450Z AUTO 03006KT 10SM CLR 07/06 A3018 RMK AO2
Loading
Personal Weather Stations






























Interactive Weather Map New forecast layout! Learn more

10-Day Weather Forecast

Advertisements
Track Severe Weather on mobile